createdAt,value
2019-05-28T00:00:11.939Z,10.05
2019-05-28T00:02:38.668Z,10.38
2019-05-28T00:05:05.297Z,10.48
2019-05-28T00:07:31.496Z,10.90
2019-05-28T00:09:57.801Z,9.90
2019-05-28T00:12:24.042Z,10.45
2019-05-28T00:14:50.253Z,11.33
2019-05-28T00:17:16.485Z,11.22
2019-05-28T00:19:42.701Z,12.23
2019-05-28T00:22:09.024Z,12.07
2019-05-28T00:24:35.252Z,12.10
2019-05-28T00:27:01.544Z,12.35
2019-05-28T00:29:27.890Z,11.65
2019-05-28T00:31:54.081Z,11.93
2019-05-28T00:34:20.496Z,12.03
2019-05-28T00:36:46.720Z,11.10
2019-05-28T00:39:13.124Z,12.20
2019-05-28T00:41:39.332Z,12.28
2019-05-28T00:44:05.763Z,11.50
2019-05-28T00:46:31.958Z,12.18
2019-05-28T00:48:58.172Z,12.50
2019-05-28T00:51:24.417Z,12.58
2019-05-28T00:53:50.625Z,12.18
2019-05-28T00:56:19.901Z,12.40
2019-05-28T00:58:47.624Z,13.15
2019-05-28T01:01:13.945Z,12.78
2019-05-28T01:03:40.144Z,12.18
2019-05-28T01:06:06.396Z,13.15
2019-05-28T01:08:32.602Z,13.45
2019-05-28T01:10:58.841Z,12.40
2019-05-28T01:13:25.046Z,10.80
2019-05-28T01:15:51.297Z,11.25
2019-05-28T01:18:18.053Z,10.55
2019-05-28T01:20:44.373Z,10.98
2019-05-28T01:23:10.579Z,10.45
2019-05-28T01:25:36.825Z,11.20
2019-05-28T01:28:03.343Z,10.95
2019-05-28T01:30:29.676Z,10.13
2019-05-28T01:32:55.938Z,10.53
2019-05-28T01:35:22.135Z,11.10
2019-05-28T01:37:49.469Z,9.40
2019-05-28T01:40:16.212Z,10.35
2019-05-28T01:42:42.435Z,9.33
2019-05-28T01:45:09.554Z,9.75
2019-05-28T01:47:35.762Z,9.83
2019-05-28T01:50:27.986Z,9.00
2019-05-28T01:52:54.500Z,9.50
2019-05-28T01:55:20.706Z,8.93
2019-05-28T01:57:46.929Z,9.15
2019-05-28T02:00:14.034Z,9.30
2019-05-28T02:02:40.484Z,9.30
2019-05-28T02:05:08.336Z,9.40
2019-05-28T02:07:34.744Z,9.00
2019-05-28T02:10:01.229Z,8.40
2019-05-28T02:12:27.478Z,8.85
2019-05-28T02:14:53.673Z,9.23
2019-05-28T02:17:19.958Z,9.33
2019-05-28T02:19:46.149Z,9.43
2019-05-28T02:22:12.389Z,9.25
2019-05-28T02:24:38.597Z,8.38
2019-05-28T02:27:04.834Z,8.78
2019-05-28T02:29:32.084Z,7.80
2019-05-28T02:31:58.517Z,8.25
2019-05-28T02:34:24.767Z,8.75
2019-05-28T02:36:51.002Z,7.95
2019-05-28T02:39:17.208Z,8.53
2019-05-28T02:41:43.464Z,7.65
2019-05-28T02:44:09.703Z,8.48
2019-05-28T02:46:35.956Z,8.68
2019-05-28T02:49:02.474Z,9.00
2019-05-28T02:51:36.317Z,8.48
2019-05-28T02:54:03.218Z,8.30
2019-05-28T02:56:30.334Z,8.70
2019-05-28T02:58:57.193Z,8.75
2019-05-28T03:01:25.305Z,8.88
2019-05-28T03:03:55.160Z,8.78
2019-05-28T03:06:23.660Z,9.03
2019-05-28T03:08:55.555Z,9.28
2019-05-28T03:11:21.844Z,8.60
2019-05-28T03:13:48.495Z,9.43
2019-05-28T03:16:17.515Z,10.15
2019-05-28T03:18:45.269Z,8.43
2019-05-28T03:21:11.971Z,8.68
2019-05-28T03:23:40.592Z,9.25
2019-05-28T03:26:06.996Z,9.00
2019-05-28T03:28:33.609Z,9.55
2019-05-28T03:30:59.814Z,9.10
2019-05-28T03:33:26.328Z,8.63
2019-05-28T03:36:15.250Z,8.10
2019-05-28T03:38:43.364Z,9.10
2019-05-28T03:41:10.058Z,8.05
2019-05-28T03:43:36.345Z,9.03
2019-05-28T03:46:02.822Z,8.08
2019-05-28T03:48:29.140Z,8.70
2019-05-28T03:50:55.364Z,8.55
2019-05-28T03:53:21.599Z,9.08
2019-05-28T03:55:47.896Z,8.90
2019-05-28T03:58:14.124Z,8.63
2019-05-28T04:00:40.329Z,8.80
2019-05-28T04:03:06.685Z,8.20
2019-05-28T04:05:32.917Z,8.10
2019-05-28T04:07:59.120Z,8.48
2019-05-28T04:10:25.341Z,8.85
2019-05-28T04:12:51.545Z,7.95
2019-05-28T04:15:17.783Z,8.93
2019-05-28T04:17:44.062Z,8.35
2019-05-28T04:20:10.579Z,8.30
2019-05-28T04:22:36.788Z,7.75
2019-05-28T04:25:05.345Z,7.58
2019-05-28T04:27:31.573Z,8.13
2019-05-28T04:29:57.770Z,7.67
2019-05-28T04:32:39.336Z,8.05
2019-05-28T04:34:53.198Z,7.95
2019-05-28T04:37:19.722Z,7.67
2019-05-28T04:39:45.928Z,7.50
2019-05-28T04:42:12.135Z,7.80
2019-05-28T04:44:38.374Z,7.70
2019-05-28T04:47:08.311Z,7.40
2019-05-28T04:49:33.208Z,7.42
2019-05-28T04:51:59.580Z,7.37
2019-05-28T04:54:25.886Z,7.17
2019-05-28T04:56:52.562Z,7.28
2019-05-28T04:59:18.833Z,6.80
2019-05-28T05:01:45.042Z,7.60
2019-05-28T05:04:11.425Z,7.20
2019-05-28T05:06:37.686Z,7.33
2019-05-28T05:09:05.291Z,6.83
2019-05-28T05:11:31.662Z,7.60
2019-05-28T05:13:57.868Z,7.05
2019-05-28T05:16:24.073Z,6.92
2019-05-28T05:18:50.284Z,6.95
2019-05-28T05:21:16.535Z,7.12
2019-05-28T05:23:42.732Z,7.08
2019-05-28T05:26:08.955Z,7.20
2019-05-28T05:28:35.151Z,6.90
2019-05-28T05:31:01.455Z,6.17
2019-05-28T05:33:27.782Z,6.85
2019-05-28T05:35:53.987Z,6.05
2019-05-28T05:38:20.211Z,6.60
2019-05-28T05:40:46.418Z,5.85
2019-05-28T05:43:12.728Z,5.87
2019-05-28T05:45:38.930Z,5.53
2019-05-28T05:48:05.153Z,5.62
2019-05-28T05:50:31.350Z,4.87
2019-05-28T05:52:57.594Z,5.35
2019-05-28T05:55:23.816Z,4.92
2019-05-28T05:57:50.041Z,4.53
2019-05-28T06:00:17.972Z,5.17
2019-05-28T06:02:44.168Z,5.25
2019-05-28T06:05:10.753Z,4.60
2019-05-28T06:07:36.989Z,4.62
2019-05-28T06:10:06.590Z,4.80
2019-05-28T06:12:32.799Z,4.50
2019-05-28T06:14:59.348Z,4.62
2019-05-28T06:17:25.946Z,4.75
2019-05-28T06:19:52.195Z,3.77
2019-05-28T06:22:18.457Z,4.33
2019-05-28T06:24:44.673Z,3.90
2019-05-28T06:27:10.952Z,4.00
2019-05-28T06:29:37.197Z,4.05
2019-05-28T06:32:03.414Z,3.72
2019-05-28T06:34:29.705Z,3.85
2019-05-28T06:36:55.995Z,4.00
2019-05-28T06:39:22.233Z,3.95
2019-05-28T06:41:48.453Z,4.20
2019-05-28T06:44:14.777Z,3.65
2019-05-28T06:46:41.235Z,3.72
2019-05-28T06:49:07.456Z,4.42
2019-05-28T06:51:33.804Z,3.70
2019-05-28T06:54:00.010Z,4.70
2019-05-28T06:56:26.236Z,4.20
2019-05-28T06:58:52.515Z,4.20
2019-05-28T07:01:18.810Z,4.20
2019-05-28T07:03:45.027Z,3.60
2019-05-28T07:06:12.264Z,4.10
2019-05-28T07:08:38.477Z,3.77
2019-05-28T07:11:18.601Z,3.83
2019-05-28T07:13:44.899Z,3.98
2019-05-28T07:16:11.217Z,4.15
2019-05-28T07:18:37.480Z,3.80
2019-05-28T07:21:03.708Z,3.90
2019-05-28T07:23:30.009Z,3.87
2019-05-28T07:25:56.258Z,4.33
2019-05-28T07:28:22.555Z,4.90
2019-05-28T07:30:49.281Z,4.20
2019-05-28T07:33:15.476Z,4.78
2019-05-28T07:35:45.615Z,5.00
2019-05-28T07:38:09.800Z,5.33
2019-05-28T07:40:36.030Z,4.53
2019-05-28T07:43:03.590Z,5.25
2019-05-28T07:45:29.979Z,5.58
2019-05-28T07:47:56.563Z,6.00
2019-05-28T07:50:22.769Z,5.60
2019-05-28T07:52:49.101Z,5.37
2019-05-28T07:55:15.302Z,4.80
2019-05-28T07:57:41.524Z,5.50
2019-05-28T08:00:08.356Z,5.17
2019-05-28T08:02:34.954Z,4.60
2019-05-28T08:05:01.367Z,5.25
2019-05-28T08:07:27.565Z,4.60
2019-05-28T08:09:53.917Z,5.03
2019-05-28T08:12:20.125Z,4.83
2019-05-28T08:14:46.323Z,4.60
2019-05-28T08:17:12.640Z,5.33
2019-05-28T08:19:38.868Z,5.53
2019-05-28T08:22:05.301Z,6.05
2019-05-28T08:24:31.714Z,6.37
2019-05-28T08:26:58.028Z,6.60
2019-05-28T08:29:24.320Z,6.80
2019-05-28T08:31:50.569Z,7.30
2019-05-28T08:34:19.382Z,6.25
2019-05-28T08:36:44.978Z,6.53
2019-05-28T08:39:11.316Z,7.42
2019-05-28T08:41:37.827Z,7.50
2019-05-28T08:44:04.574Z,6.97
2019-05-28T08:46:30.805Z,7.22
2019-05-28T08:48:57.021Z,6.97
2019-05-28T08:51:23.232Z,5.87
2019-05-28T08:53:49.433Z,5.00
2019-05-28T08:56:15.668Z,5.65
2019-05-28T08:58:41.915Z,6.70
2019-05-28T09:01:08.132Z,6.70
2019-05-28T09:03:34.359Z,7.78
2019-05-28T09:06:00.818Z,8.20
2019-05-28T09:08:38.795Z,7.33
2019-05-28T09:10:56.251Z,7.87
2019-05-28T09:13:22.507Z,7.33
2019-05-28T09:15:48.783Z,7.08
2019-05-28T09:18:15.013Z,7.60
2019-05-28T09:20:41.417Z,7.85
2019-05-28T09:23:07.767Z,8.13
2019-05-28T09:25:34.062Z,7.85
2019-05-28T09:28:00.269Z,8.23
2019-05-28T09:30:26.599Z,8.68
2019-05-28T09:32:52.956Z,10.50
2019-05-28T09:35:19.257Z,10.48
2019-05-28T09:37:45.479Z,10.40
2019-05-28T09:40:12.421Z,12.47
2019-05-28T09:42:38.729Z,12.58
2019-05-28T09:45:21.284Z,13.43
2019-05-28T09:47:34.052Z,13.25
2019-05-28T09:50:00.969Z,14.53
2019-05-28T09:52:27.272Z,14.15
2019-05-28T09:54:53.487Z,14.78
2019-05-28T09:57:19.685Z,15.72
2019-05-28T09:59:45.907Z,15.60
2019-05-28T10:02:12.096Z,14.50
2019-05-28T10:04:47.666Z,15.68
2019-05-28T10:07:06.503Z,16.45
2019-05-28T10:09:32.985Z,16.50
2019-05-28T10:11:59.297Z,16.65
2019-05-28T10:14:25.491Z,15.30
2019-05-28T10:16:51.712Z,15.43
2019-05-28T10:19:18.077Z,15.13
2019-05-28T10:21:44.445Z,17.00
2019-05-28T10:24:10.666Z,19.45
2019-05-28T10:26:36.869Z,18.55
2019-05-28T10:29:03.483Z,19.17
2019-05-28T10:31:29.685Z,21.62
2019-05-28T10:33:57.624Z,20.08
2019-05-28T10:36:35.301Z,20.80
2019-05-28T10:38:53.035Z,20.35
2019-05-28T10:41:19.363Z,21.60
2019-05-28T10:43:46.007Z,20.95
2019-05-28T10:46:13.869Z,20.27
2019-05-28T10:48:40.241Z,21.02
2019-05-28T10:51:06.461Z,18.27
2019-05-28T10:53:32.672Z,17.60
2019-05-28T10:55:59.652Z,19.65
2019-05-28T10:58:25.853Z,19.20
2019-05-28T11:00:52.086Z,17.45
2019-05-28T11:03:18.345Z,18.02
2019-05-28T11:05:44.554Z,16.97
2019-05-28T11:08:10.760Z,18.00
2019-05-28T11:10:37.065Z,17.42
2019-05-28T11:13:04.000Z,16.48
2019-05-28T11:15:30.816Z,19.20
2019-05-28T11:17:57.101Z,17.40
2019-05-28T11:20:23.723Z,18.57
2019-05-28T11:22:50.023Z,19.60
2019-05-28T11:25:17.049Z,20.45
2019-05-28T11:27:43.253Z,19.80
2019-05-28T11:30:11.019Z,20.48
2019-05-28T11:32:37.629Z,18.80
2019-05-28T11:35:05.498Z,18.48
2019-05-28T11:37:31.836Z,16.97
2019-05-28T11:39:59.012Z,14.40
2019-05-28T11:42:25.940Z,10.55
2019-05-28T11:44:52.336Z,10.23
2019-05-28T11:47:18.695Z,9.80
2019-05-28T11:49:44.904Z,8.73
2019-05-28T11:52:11.201Z,9.03
2019-05-28T11:54:37.548Z,9.43
2019-05-28T11:57:11.864Z,8.55
2019-05-28T11:59:38.141Z,9.00
2019-05-28T12:02:05.553Z,7.92
2019-05-28T12:04:32.237Z,8.78
2019-05-28T12:06:58.524Z,7.90
2019-05-28T12:09:24.731Z,8.33
2019-05-28T12:11:51.089Z,7.95
2019-05-28T12:14:17.285Z,7.47
2019-05-28T12:16:43.654Z,7.80
2019-05-28T12:19:09.982Z,7.83
2019-05-28T12:21:36.194Z,7.78
2019-05-28T12:24:03.018Z,7.55
2019-05-28T12:26:29.218Z,7.17
2019-05-28T12:28:55.647Z,7.47
2019-05-28T12:31:21.845Z,6.62
2019-05-28T12:33:48.053Z,6.83
2019-05-28T12:36:14.271Z,6.58
2019-05-28T12:38:40.629Z,6.37
2019-05-28T12:41:06.926Z,6.85
2019-05-28T12:43:33.252Z,6.58
2019-05-28T12:46:01.233Z,5.92
2019-05-28T12:48:27.452Z,6.50
2019-05-28T12:50:54.754Z,5.67
2019-05-28T12:53:21.295Z,5.03
2019-05-28T12:55:48.577Z,6.28
2019-05-28T12:58:17.262Z,5.58
2019-05-28T13:00:43.100Z,5.90
2019-05-28T13:03:09.336Z,5.67
2019-05-28T13:05:37.497Z,4.90
2019-05-28T13:08:09.317Z,4.97
2019-05-28T13:10:32.185Z,4.87
2019-05-28T13:12:58.393Z,4.10
2019-05-28T13:15:24.647Z,4.35
2019-05-28T13:17:51.173Z,4.28
2019-05-28T13:20:18.646Z,4.50
2019-05-28T13:22:46.614Z,4.12
2019-05-28T13:25:13.154Z,4.45
2019-05-28T13:27:39.386Z,4.30
2019-05-28T13:30:09.989Z,4.83
2019-05-28T13:32:36.428Z,5.47
2019-05-28T13:35:06.029Z,4.67
2019-05-28T13:37:32.374Z,4.60
2019-05-28T13:39:58.585Z,5.60
2019-05-28T13:42:25.023Z,5.85
2019-05-28T13:44:51.344Z,6.15
2019-05-28T13:47:33.161Z,5.40
2019-05-28T13:49:46.813Z,5.65
2019-05-28T13:52:13.018Z,5.97
2019-05-28T13:54:39.321Z,6.03
2019-05-28T13:57:05.531Z,5.65
2019-05-28T13:59:31.888Z,5.47
2019-05-28T14:01:58.090Z,5.42
2019-05-28T14:04:24.538Z,5.65
2019-05-28T14:06:50.936Z,6.30
2019-05-28T14:09:17.512Z,6.10
2019-05-28T14:11:43.815Z,5.00
2019-05-28T14:14:10.029Z,5.80
2019-05-28T14:16:36.356Z,5.20
2019-05-28T14:19:03.359Z,5.12
2019-05-28T14:21:29.574Z,5.03
2019-05-28T14:23:55.778Z,5.83
2019-05-28T14:26:22.009Z,5.50
2019-05-28T14:28:48.306Z,5.83
2019-05-28T14:31:14.515Z,6.22
2019-05-28T14:33:40.864Z,6.55
2019-05-28T14:36:07.214Z,5.75
2019-05-28T14:38:33.434Z,5.70
2019-05-28T14:41:00.606Z,5.97
2019-05-28T14:43:27.317Z,6.33
2019-05-28T14:45:53.546Z,6.35
2019-05-28T14:48:19.861Z,6.20
2019-05-28T14:50:46.191Z,6.62
2019-05-28T14:53:12.522Z,6.90
2019-05-28T14:55:38.811Z,7.33
2019-05-28T14:58:06.038Z,7.28
2019-05-28T15:00:32.586Z,7.58
2019-05-28T15:02:58.874Z,8.05
2019-05-28T15:05:25.172Z,8.20
2019-05-28T15:07:51.559Z,7.50
2019-05-28T15:10:18.744Z,6.65
2019-05-28T15:12:45.238Z,7.72
2019-05-28T15:15:15.594Z,7.78
2019-05-28T15:17:42.778Z,8.88
2019-05-28T15:20:09.892Z,8.50
2019-05-28T15:22:36.222Z,8.10
2019-05-28T15:25:06.346Z,8.55
2019-05-28T15:27:32.578Z,8.13
2019-05-28T15:29:58.826Z,7.95
2019-05-28T15:32:25.162Z,9.00
2019-05-28T15:34:51.393Z,8.58
2019-05-28T15:37:17.609Z,7.60
2019-05-28T15:39:43.921Z,7.10
2019-05-28T15:42:19.240Z,6.05
2019-05-28T15:44:38.329Z,4.37
2019-05-28T15:47:04.538Z,3.25
2019-05-28T15:49:30.885Z,3.47
2019-05-28T15:52:07.376Z,3.08
2019-05-28T15:54:25.259Z,3.50
2019-05-28T15:56:52.475Z,3.33
2019-05-28T15:59:18.998Z,3.12
2019-05-28T16:01:45.292Z,3.55
2019-05-28T16:04:11.521Z,4.00
2019-05-28T16:06:37.744Z,3.90
2019-05-28T16:09:06.197Z,5.47
2019-05-28T16:11:32.814Z,6.12
2019-05-28T16:13:59.187Z,5.87
2019-05-28T16:16:25.454Z,7.15
2019-05-28T16:18:51.751Z,6.62
2019-05-28T16:21:17.982Z,6.35
2019-05-28T16:23:44.308Z,7.00
2019-05-28T16:26:11.377Z,7.40
2019-05-28T16:28:38.702Z,7.12
2019-05-28T16:31:12.497Z,6.95
2019-05-28T16:33:33.126Z,8.10
2019-05-28T16:35:59.488Z,6.95
2019-05-28T16:38:25.688Z,7.12
2019-05-28T16:40:53.067Z,7.08
2019-05-28T16:43:19.274Z,7.55
2019-05-28T16:45:45.529Z,7.08
2019-05-28T16:48:12.006Z,7.65
2019-05-28T16:50:38.331Z,8.10
2019-05-28T16:53:04.573Z,7.30
2019-05-28T16:55:30.784Z,6.72
2019-05-28T16:57:57.207Z,7.03
2019-05-28T17:00:23.616Z,7.22
2019-05-28T17:02:50.097Z,6.78
2019-05-28T17:05:16.732Z,7.15
2019-05-28T17:07:43.124Z,7.30
2019-05-28T17:10:09.984Z,7.12
2019-05-28T17:12:37.435Z,6.80
2019-05-28T17:15:05.040Z,7.40
2019-05-28T17:17:31.988Z,7.15
2019-05-28T17:19:58.308Z,6.33
2019-05-28T17:22:24.613Z,4.87
2019-05-28T17:24:51.986Z,5.65
2019-05-28T17:27:18.407Z,5.62
2019-05-28T17:29:45.819Z,6.35
2019-05-28T17:32:12.016Z,6.70
2019-05-28T17:35:00.241Z,7.08
2019-05-28T17:37:26.592Z,7.50
2019-05-28T17:39:52.983Z,6.12
2019-05-28T17:42:19.262Z,6.47
2019-05-28T17:44:47.310Z,6.60
2019-05-28T17:47:13.772Z,6.50
2019-05-28T17:49:40.348Z,6.35
2019-05-28T17:52:07.632Z,6.03
2019-05-28T17:54:34.034Z,6.20
2019-05-28T17:57:01.431Z,6.25
2019-05-28T17:59:27.750Z,5.62
2019-05-28T18:01:53.991Z,6.50
2019-05-28T18:04:20.185Z,5.47
2019-05-28T18:06:46.405Z,6.03
2019-05-28T18:09:12.661Z,5.37
2019-05-28T18:11:39.020Z,5.37
2019-05-28T18:14:05.480Z,5.33
2019-05-28T18:16:31.731Z,5.85
2019-05-28T18:19:00.660Z,5.22
2019-05-28T18:21:26.181Z,4.70
2019-05-28T18:24:12.397Z,5.25
2019-05-28T18:26:38.637Z,5.00
2019-05-28T18:29:04.869Z,4.65
2019-05-28T18:31:32.100Z,4.97
2019-05-28T18:33:58.470Z,5.42
2019-05-28T18:36:25.015Z,5.30
2019-05-28T18:38:51.313Z,5.85
2019-05-28T18:41:21.717Z,5.45
2019-05-28T18:43:47.042Z,6.83
2019-05-28T18:46:15.537Z,5.37
2019-05-28T18:48:42.156Z,5.30
2019-05-28T18:51:08.372Z,5.60
2019-05-28T18:53:34.629Z,5.42
2019-05-28T18:56:16.433Z,4.92
2019-05-28T18:58:29.419Z,5.25
2019-05-28T19:00:55.775Z,5.58
2019-05-28T19:03:22.028Z,5.67
2019-05-28T19:05:48.229Z,5.37
2019-05-28T19:08:14.597Z,5.00
2019-05-28T19:10:40.868Z,5.08
2019-05-28T19:13:07.231Z,5.00
2019-05-28T19:15:33.468Z,4.80
2019-05-28T19:17:59.855Z,4.75
2019-05-28T19:20:26.518Z,5.20
2019-05-28T19:22:52.807Z,5.45
2019-05-28T19:25:19.222Z,4.60
2019-05-28T19:27:45.545Z,5.03
2019-05-28T19:30:12.162Z,4.83
2019-05-28T19:32:39.007Z,4.12
2019-05-28T19:35:08.081Z,3.80
2019-05-28T19:37:34.961Z,5.15
2019-05-28T19:40:01.513Z,4.78
2019-05-28T19:42:27.752Z,4.00
2019-05-28T19:44:54.003Z,4.42
2019-05-28T19:47:20.195Z,4.37
2019-05-28T19:49:46.432Z,3.72
2019-05-28T19:52:12.650Z,4.00
2019-05-28T19:54:38.989Z,4.65
2019-05-28T19:57:05.204Z,5.05
2019-05-28T19:59:51.281Z,4.45
2019-05-28T20:02:17.509Z,4.40
2019-05-28T20:04:43.712Z,4.08
2019-05-28T20:07:10.169Z,3.72
2019-05-28T20:09:37.435Z,4.20
2019-05-28T20:12:12.226Z,4.33
2019-05-28T20:14:31.810Z,3.87
2019-05-28T20:16:58.006Z,4.30
2019-05-28T20:19:24.506Z,3.83
2019-05-28T20:21:52.590Z,3.60
2019-05-28T20:24:19.832Z,3.72
2019-05-28T20:26:46.170Z,4.17
2019-05-28T20:29:12.339Z,3.67
2019-05-28T20:31:38.493Z,3.98
2019-05-28T20:34:05.330Z,3.65
2019-05-28T20:36:31.640Z,3.62
2019-05-28T20:38:57.817Z,3.70
2019-05-28T20:41:23.974Z,3.83
2019-05-28T20:43:50.212Z,3.22
2019-05-28T20:46:16.377Z,3.37
2019-05-28T20:48:43.589Z,3.50
2019-05-28T20:51:20.976Z,3.40
2019-05-28T20:53:37.835Z,3.27
2019-05-28T20:56:04.100Z,3.50
2019-05-28T20:58:39.784Z,3.15
2019-05-28T21:00:59.446Z,3.55
2019-05-28T21:03:25.624Z,3.30
2019-05-28T21:05:52.835Z,3.50
2019-05-28T21:08:19.483Z,3.33
2019-05-28T21:10:45.684Z,3.05
2019-05-28T21:13:12.286Z,2.72
2019-05-28T21:15:38.477Z,3.22
2019-05-28T21:18:04.644Z,2.83
2019-05-28T21:20:30.936Z,3.52
2019-05-28T21:22:58.095Z,2.70
2019-05-28T21:25:24.378Z,2.77
2019-05-28T21:27:50.536Z,2.90
2019-05-28T21:30:17.332Z,3.10
2019-05-28T21:32:43.496Z,2.98
2019-05-28T21:35:10.092Z,3.55
2019-05-28T21:37:36.260Z,3.58
2019-05-28T21:40:04.327Z,3.50
2019-05-28T21:42:30.503Z,4.25
2019-05-28T21:44:56.694Z,3.70
2019-05-28T21:47:23.200Z,3.87
2019-05-28T21:49:49.426Z,3.98
2019-05-28T21:52:15.597Z,4.28
2019-05-28T21:54:41.769Z,4.10
2019-05-28T21:57:07.956Z,5.22
2019-05-28T21:59:34.121Z,5.17
2019-05-28T22:02:00.293Z,4.67
2019-05-28T22:04:27.061Z,4.80
2019-05-28T22:06:53.237Z,4.85
2019-05-28T22:09:19.396Z,4.78
2019-05-28T22:11:45.569Z,4.50
2019-05-28T22:14:11.767Z,4.75
2019-05-28T22:16:37.989Z,4.85
2019-05-28T22:19:04.621Z,5.37
2019-05-28T22:21:30.949Z,5.28
2019-05-28T22:23:58.296Z,5.03
2019-05-28T22:26:24.733Z,5.58
2019-05-28T22:28:51.993Z,5.55
2019-05-28T22:31:18.178Z,5.97
2019-05-28T22:33:44.537Z,5.30
2019-05-28T22:36:10.808Z,5.85
2019-05-28T22:38:37.098Z,6.28
2019-05-28T22:41:04.425Z,6.05
2019-05-28T22:43:31.986Z,5.58
2019-05-28T22:45:59.043Z,5.70
2019-05-28T22:48:25.496Z,6.00
2019-05-28T22:50:51.698Z,6.22
2019-05-28T22:53:18.873Z,5.67
2019-05-28T22:55:45.042Z,5.95
2019-05-28T22:58:11.248Z,6.08
2019-05-28T23:00:37.497Z,5.92
2019-05-28T23:03:04.963Z,6.25
2019-05-28T23:05:31.956Z,5.95
2019-05-28T23:07:59.273Z,6.85
2019-05-28T23:10:25.602Z,6.58
2019-05-28T23:12:51.764Z,6.85
2019-05-28T23:15:18.043Z,7.40
2019-05-28T23:17:44.215Z,7.12
2019-05-28T23:20:11.889Z,7.40
2019-05-28T23:22:38.128Z,7.40
2019-05-28T23:25:07.553Z,6.72
2019-05-28T23:27:33.986Z,7.00
2019-05-28T23:30:00.400Z,7.80
2019-05-28T23:32:26.744Z,7.95
2019-05-28T23:34:56.214Z,8.43
2019-05-28T23:37:21.025Z,7.22
2019-05-28T23:39:47.195Z,6.30
2019-05-28T23:42:13.671Z,6.70
2019-05-28T23:44:39.972Z,6.20
2019-05-28T23:47:06.181Z,6.70
2019-05-28T23:49:32.345Z,5.95
2019-05-28T23:51:58.564Z,6.75
2019-05-28T23:54:24.736Z,6.15
2019-05-28T23:56:50.890Z,6.70
2019-05-28T23:59:18.027Z,7.05
